createdAt,value
2018-04-23T00:00:09.370Z,8.80
2018-04-23T00:02:36.942Z,8.17
2018-04-23T00:05:04.473Z,8.13
2018-04-23T00:07:32.048Z,7.77
2018-04-23T00:09:59.587Z,7.57
2018-04-23T00:12:27.177Z,7.80
2018-04-23T00:14:54.750Z,8.20
2018-04-23T00:17:22.283Z,6.10
2018-04-23T00:19:49.864Z,7.53
2018-04-23T00:22:17.449Z,7.77
2018-04-23T00:24:44.991Z,8.13
2018-04-23T00:27:12.559Z,7.37
2018-04-23T00:29:40.093Z,7.83
2018-04-23T00:32:07.628Z,7.67
2018-04-23T00:34:35.163Z,8.20
2018-04-23T00:37:02.713Z,8.47
2018-04-23T00:39:30.255Z,7.70
2018-04-23T00:41:57.785Z,6.93
2018-04-23T00:44:25.332Z,7.77
2018-04-23T00:46:52.887Z,7.60
2018-04-23T00:49:20.438Z,6.90
2018-04-23T00:51:47.969Z,7.60
2018-04-23T00:54:15.512Z,7.27
2018-04-23T00:56:43.043Z,6.90
2018-04-23T00:59:10.572Z,7.07
2018-04-23T01:01:38.099Z,6.60
2018-04-23T01:04:05.626Z,7.40
2018-04-23T01:06:33.159Z,6.63
2018-04-23T01:09:00.731Z,5.90
2018-04-23T01:11:28.261Z,6.20
2018-04-23T01:13:55.784Z,7.13
2018-04-23T01:16:24.217Z,9.37
2018-04-23T01:18:51.790Z,7.87
2018-04-23T01:21:19.328Z,7.13
2018-04-23T01:23:46.873Z,8.20
2018-04-23T01:26:14.416Z,7.00
2018-04-23T01:28:41.963Z,8.00
2018-04-23T01:31:09.540Z,9.27
2018-04-23T01:33:37.075Z,8.33
2018-04-23T01:36:04.636Z,8.30
2018-04-23T01:38:32.202Z,7.90
2018-04-23T01:40:59.748Z,8.00
2018-04-23T01:43:27.290Z,8.23
2018-04-23T01:45:54.818Z,8.30
2018-04-23T01:48:22.347Z,8.03
2018-04-23T01:50:54.077Z,8.00
2018-04-23T01:53:21.700Z,8.03
2018-04-23T01:55:49.281Z,8.03
2018-04-23T01:58:16.851Z,8.03
2018-04-23T02:00:44.415Z,7.40
2018-04-23T02:03:11.943Z,7.43
2018-04-23T02:05:39.471Z,7.90
2018-04-23T02:08:07.055Z,8.30
2018-04-23T02:10:34.584Z,8.33
2018-04-23T02:13:02.576Z,7.60
2018-04-23T02:15:30.103Z,8.07
2018-04-23T02:17:57.668Z,7.50
2018-04-23T02:20:25.204Z,7.73
2018-04-23T02:22:52.831Z,6.97
2018-04-23T02:25:20.343Z,7.40
2018-04-23T02:27:47.886Z,7.50
2018-04-23T02:30:15.467Z,7.07
2018-04-23T02:32:43.000Z,7.47
2018-04-23T02:35:10.580Z,8.10
2018-04-23T02:37:38.143Z,7.90
2018-04-23T02:40:05.720Z,8.50
2018-04-23T02:42:34.033Z,8.17
2018-04-23T02:45:02.528Z,8.93
2018-04-23T02:47:30.104Z,8.77
2018-04-23T02:49:57.672Z,8.70
2018-04-23T02:52:25.215Z,9.90
2018-04-23T02:54:52.766Z,9.10
2018-04-23T02:57:20.304Z,9.57
2018-04-23T02:59:47.853Z,9.10
2018-04-23T03:02:16.419Z,9.47
2018-04-23T03:04:43.963Z,8.63
2018-04-23T03:07:11.552Z,8.63
2018-04-23T03:09:39.088Z,9.30
2018-04-23T03:12:06.620Z,9.53
2018-04-23T03:14:34.199Z,8.80
2018-04-23T03:17:01.748Z,8.80
2018-04-23T03:19:29.335Z,8.67
2018-04-23T03:21:56.871Z,9.90
2018-04-23T03:24:24.446Z,9.83
2018-04-23T03:26:51.982Z,10.37
2018-04-23T03:29:19.514Z,10.17
2018-04-23T03:31:47.080Z,9.33
2018-04-23T03:34:14.607Z,8.97
2018-04-23T03:36:42.169Z,9.57
2018-04-23T03:39:09.699Z,10.53
2018-04-23T03:41:37.247Z,10.40
2018-04-23T03:44:04.811Z,9.90
2018-04-23T03:46:33.258Z,10.07
2018-04-23T03:49:00.793Z,10.43
2018-04-23T03:51:28.366Z,9.80
2018-04-23T03:53:55.905Z,9.83
2018-04-23T03:56:23.448Z,10.57
2018-04-23T03:58:51.053Z,10.43
2018-04-23T04:01:18.589Z,8.57
2018-04-23T04:03:46.129Z,8.83
2018-04-23T04:06:13.666Z,8.70
2018-04-23T04:08:41.200Z,8.40
2018-04-23T04:11:08.744Z,7.17
2018-04-23T04:13:48.104Z,6.87
2018-04-23T04:16:27.555Z,8.00
2018-04-23T04:18:55.110Z,8.27
2018-04-23T04:21:22.643Z,7.33
2018-04-23T04:23:50.172Z,8.33
2018-04-23T04:26:17.708Z,8.40
2018-04-23T04:28:45.279Z,7.93
2018-04-23T04:31:13.133Z,7.60
2018-04-23T04:33:40.655Z,7.60
2018-04-23T04:36:08.187Z,8.57
2018-04-23T04:38:35.758Z,7.30
2018-04-23T04:41:03.295Z,7.50
2018-04-23T04:43:30.832Z,7.10
2018-04-23T04:45:58.366Z,6.90
2018-04-23T04:48:25.899Z,7.70
2018-04-23T04:50:53.485Z,7.33
2018-04-23T04:53:21.028Z,7.30
2018-04-23T04:55:48.560Z,7.30
2018-04-23T04:58:16.087Z,7.73
2018-04-23T05:00:43.628Z,6.80
2018-04-23T05:03:11.181Z,7.13
2018-04-23T05:05:38.775Z,8.43
2018-04-23T05:08:06.315Z,14.47
2018-04-23T05:10:33.849Z,19.80
2018-04-23T05:13:01.429Z,9.40
2018-04-23T05:15:29.985Z,8.13
2018-04-23T05:17:57.563Z,7.90
2018-04-23T05:20:25.096Z,8.90
2018-04-23T05:22:52.691Z,9.53
2018-04-23T05:25:20.228Z,9.57
2018-04-23T05:27:47.778Z,9.43
2018-04-23T05:30:15.357Z,8.03
2018-04-23T05:32:42.898Z,8.43
2018-04-23T05:35:10.479Z,9.83
2018-04-23T05:37:38.021Z,9.33
2018-04-23T05:40:05.563Z,9.80
2018-04-23T05:42:33.142Z,9.10
2018-04-23T05:45:00.690Z,10.63
2018-04-23T05:47:28.232Z,10.40
2018-04-23T05:49:55.828Z,10.40
2018-04-23T05:52:23.415Z,10.03
2018-04-23T05:54:50.962Z,12.50
2018-04-23T05:57:18.497Z,11.30
2018-04-23T05:59:46.077Z,10.97
2018-04-23T06:02:14.128Z,12.23
2018-04-23T06:04:42.001Z,11.30
2018-04-23T06:07:09.534Z,11.13
2018-04-23T06:09:37.076Z,11.33
2018-04-23T06:12:04.607Z,10.57
2018-04-23T06:14:32.139Z,12.30
2018-04-23T06:16:59.675Z,12.83
2018-04-23T06:19:27.217Z,10.80
2018-04-23T06:21:54.842Z,12.43
2018-04-23T06:24:22.424Z,10.73
2018-04-23T06:26:49.973Z,11.67
2018-04-23T06:29:17.564Z,12.00
2018-04-23T06:31:45.104Z,11.70
2018-04-23T06:34:12.681Z,13.03
2018-04-23T06:36:40.238Z,8.80
2018-04-23T06:39:07.778Z,8.67
2018-04-23T06:41:35.343Z,8.73
2018-04-23T06:44:02.877Z,9.97
2018-04-23T06:46:30.443Z,10.63
2018-04-23T06:48:58.244Z,10.40
2018-04-23T06:51:25.784Z,11.20
2018-04-23T06:53:53.355Z,11.98
2018-04-23T06:56:20.912Z,11.43
2018-04-23T06:58:48.534Z,15.02
2018-04-23T07:01:16.111Z,14.95
2018-04-23T07:03:43.713Z,14.77
2018-04-23T07:06:11.260Z,13.98
2018-04-23T07:08:38.836Z,13.77
2018-04-23T07:11:06.380Z,13.38
2018-04-23T07:13:33.978Z,14.00
2018-04-23T07:16:01.542Z,13.68
2018-04-23T07:18:29.096Z,11.82
2018-04-23T07:20:56.671Z,13.15
2018-04-23T07:23:24.259Z,11.38
2018-04-23T07:25:51.811Z,11.50
2018-04-23T07:28:19.348Z,11.65
2018-04-23T07:30:46.917Z,12.73
2018-04-23T07:33:14.471Z,12.05
2018-04-23T07:35:42.014Z,10.93
2018-04-23T07:38:09.571Z,10.82
2018-04-23T07:40:37.154Z,11.18
2018-04-23T07:43:04.687Z,9.90
2018-04-23T07:45:32.222Z,11.32
2018-04-23T07:47:59.790Z,9.88
2018-04-23T07:50:27.338Z,9.80
2018-04-23T07:52:54.883Z,9.75
2018-04-23T07:55:22.439Z,8.85
2018-04-23T07:57:49.989Z,10.10
2018-04-23T08:00:17.551Z,11.35
2018-04-23T08:02:45.087Z,10.55
2018-04-23T08:05:12.618Z,8.73
2018-04-23T08:07:40.155Z,7.68
2018-04-23T08:10:07.733Z,7.43
2018-04-23T08:12:35.254Z,8.15
2018-04-23T08:15:02.790Z,8.80
2018-04-23T08:17:30.328Z,7.60
2018-04-23T08:19:57.876Z,7.03
2018-04-23T08:22:25.544Z,7.25
2018-04-23T08:24:53.105Z,6.47
2018-04-23T08:27:20.657Z,7.30
2018-04-23T08:29:48.262Z,5.15
2018-04-23T08:32:15.805Z,4.93
2018-04-23T08:34:43.330Z,5.25
2018-04-23T08:37:10.872Z,9.63
2018-04-23T08:39:38.404Z,7.07
2018-04-23T08:42:05.949Z,5.80
2018-04-23T08:44:33.489Z,6.07
2018-04-23T08:47:01.034Z,7.07
2018-04-23T08:49:28.577Z,5.65
2018-04-23T08:51:56.112Z,5.80
2018-04-23T08:54:23.658Z,5.00
2018-04-23T08:56:51.223Z,9.05
2018-04-23T08:59:18.764Z,7.45
2018-04-23T09:01:46.295Z,5.78
2018-04-23T09:04:13.837Z,5.15
2018-04-23T09:06:41.380Z,5.03
2018-04-23T09:09:09.794Z,4.87
2018-04-23T09:11:37.368Z,4.20
2018-04-23T09:14:04.940Z,4.80
2018-04-23T09:16:32.468Z,4.78
2018-04-23T09:18:59.999Z,5.30
2018-04-23T09:21:27.568Z,5.47
2018-04-23T09:23:55.100Z,4.93
2018-04-23T09:26:22.641Z,4.57
2018-04-23T09:28:50.204Z,4.60
2018-04-23T09:31:17.773Z,4.50
2018-04-23T09:33:45.298Z,4.25
2018-04-23T09:36:12.850Z,4.25
2018-04-23T09:38:40.381Z,4.65
2018-04-23T09:41:07.921Z,5.07
2018-04-23T09:43:35.474Z,5.10
2018-04-23T09:46:03.039Z,4.90
2018-04-23T09:48:30.585Z,4.65
2018-04-23T09:50:58.110Z,4.57
2018-04-23T09:53:25.695Z,5.22
2018-04-23T09:55:53.252Z,4.60
2018-04-23T09:58:20.794Z,4.07
2018-04-23T10:00:48.358Z,5.15
2018-04-23T10:03:15.892Z,5.10
2018-04-23T10:05:43.436Z,6.75
2018-04-23T10:08:10.983Z,5.00
2018-04-23T10:10:39.379Z,4.68
2018-04-23T10:13:06.911Z,4.40
2018-04-23T10:15:34.508Z,4.40
2018-04-23T10:18:02.042Z,4.68
2018-04-23T10:20:29.582Z,4.82
2018-04-23T10:22:57.183Z,8.52
2018-04-23T10:25:24.749Z,4.93
2018-04-23T10:27:52.275Z,4.97
2018-04-23T10:30:19.835Z,5.00
2018-04-23T10:32:47.376Z,4.55
2018-04-23T10:35:14.898Z,4.37
2018-04-23T10:37:42.428Z,4.97
2018-04-23T10:40:10.005Z,4.85
2018-04-23T10:42:37.560Z,4.93
2018-04-23T10:45:05.084Z,4.72
2018-04-23T10:47:32.648Z,4.47
2018-04-23T10:50:00.230Z,4.82
2018-04-23T10:52:27.755Z,3.72
2018-04-23T10:54:55.345Z,4.60
2018-04-23T10:57:22.877Z,4.35
2018-04-23T10:59:50.407Z,4.28
2018-04-23T11:02:17.933Z,4.50
2018-04-23T11:04:45.530Z,4.37
2018-04-23T11:07:13.068Z,5.32
2018-04-23T11:09:40.661Z,4.82
2018-04-23T11:12:08.156Z,5.68
2018-04-23T11:14:35.682Z,4.22
2018-04-23T11:17:03.233Z,4.50
2018-04-23T11:19:30.768Z,4.12
2018-04-23T11:21:58.316Z,5.25
2018-04-23T11:24:25.863Z,4.50
2018-04-23T11:26:53.436Z,4.55
2018-04-23T11:29:20.973Z,4.00
2018-04-23T11:31:48.509Z,4.35
2018-04-23T11:34:16.031Z,4.55
2018-04-23T11:36:43.564Z,4.20
2018-04-23T11:39:11.098Z,4.60
2018-04-23T11:41:38.645Z,4.75
2018-04-23T11:44:06.190Z,4.65
2018-04-23T11:46:33.777Z,4.40
2018-04-23T11:49:01.317Z,4.57
2018-04-23T11:51:28.865Z,4.32
2018-04-23T11:53:56.409Z,4.50
2018-04-23T11:56:23.954Z,4.37
2018-04-23T11:58:51.496Z,4.00
2018-04-23T12:01:19.060Z,3.60
2018-04-23T12:03:46.595Z,4.45
2018-04-23T12:06:14.392Z,4.28
2018-04-23T12:08:41.944Z,4.12
2018-04-23T12:11:09.735Z,4.18
2018-04-23T12:13:37.274Z,4.97
2018-04-23T12:16:04.863Z,4.53
2018-04-23T12:18:32.398Z,4.30
2018-04-23T12:20:59.949Z,4.45
2018-04-23T12:23:27.496Z,5.12
2018-04-23T12:25:55.048Z,3.87
2018-04-23T12:28:22.626Z,4.30
2018-04-23T12:30:50.165Z,3.95
2018-04-23T12:33:17.741Z,4.15
2018-04-23T12:35:45.285Z,3.85
2018-04-23T12:38:12.869Z,3.90
2018-04-23T12:40:40.401Z,4.07
2018-04-23T12:43:07.944Z,4.10
2018-04-23T12:45:35.474Z,4.55
2018-04-23T12:48:03.018Z,4.57
2018-04-23T12:50:30.598Z,4.20
2018-04-23T12:52:58.127Z,3.75
2018-04-23T12:55:25.654Z,4.00
2018-04-23T12:57:53.252Z,3.55
2018-04-23T13:00:20.815Z,3.70
2018-04-23T13:02:48.386Z,3.80
2018-04-23T13:05:16.400Z,3.75
2018-04-23T13:07:44.001Z,3.42
2018-04-23T13:10:11.540Z,3.70
2018-04-23T13:12:39.079Z,3.97
2018-04-23T13:15:06.657Z,3.78
2018-04-23T13:17:34.208Z,3.92
2018-04-23T13:20:01.825Z,4.45
2018-04-23T13:22:29.391Z,4.10
2018-04-23T13:24:56.979Z,3.83
2018-04-23T13:27:24.522Z,3.75
2018-04-23T13:29:52.048Z,3.70
2018-04-23T13:32:19.580Z,3.58
2018-04-23T13:34:48.159Z,4.10
2018-04-23T13:37:15.718Z,4.12
2018-04-23T13:39:43.256Z,3.70
2018-04-23T13:42:10.800Z,4.27
2018-04-23T13:44:38.370Z,3.93
2018-04-23T13:47:05.922Z,3.60
2018-04-23T13:49:33.502Z,3.57
2018-04-23T13:52:01.036Z,3.90
2018-04-23T13:54:28.574Z,4.00
2018-04-23T13:56:56.107Z,3.50
2018-04-23T13:59:23.648Z,3.40
2018-04-23T14:01:51.332Z,3.87
2018-04-23T14:04:18.866Z,4.53
2018-04-23T14:06:46.447Z,3.73
2018-04-23T14:09:14.052Z,3.70
2018-04-23T14:11:41.593Z,4.93
2018-04-23T14:14:09.131Z,7.23
2018-04-23T14:16:36.705Z,6.70
2018-04-23T14:19:04.240Z,5.97
2018-04-23T14:21:31.866Z,5.57
2018-04-23T14:23:59.411Z,5.40
2018-04-23T14:26:27.012Z,5.30
2018-04-23T14:28:54.532Z,4.83
2018-04-23T14:31:22.110Z,4.13
2018-04-23T14:33:49.642Z,7.20
2018-04-23T14:36:17.216Z,5.17
2018-04-23T14:38:44.773Z,5.87
2018-04-23T14:41:12.300Z,5.30
2018-04-23T14:43:39.879Z,6.17
2018-04-23T14:46:08.075Z,8.80
2018-04-23T14:48:35.612Z,4.93
2018-04-23T14:51:03.144Z,8.43
2018-04-23T14:53:30.719Z,6.17
2018-04-23T14:55:58.256Z,6.87
2018-04-23T14:58:25.787Z,7.17
2018-04-23T15:00:53.365Z,4.83
2018-04-23T15:03:20.942Z,6.77
2018-04-23T15:05:48.538Z,5.33
2018-04-23T15:08:16.127Z,4.07
2018-04-23T15:10:43.684Z,5.97
2018-04-23T15:13:11.211Z,5.87
2018-04-23T15:15:38.781Z,4.83
2018-04-23T15:18:06.313Z,4.63
2018-04-23T15:20:33.840Z,4.87
2018-04-23T15:23:01.454Z,7.57
2018-04-23T15:25:29.089Z,5.00
2018-04-23T15:27:56.659Z,5.17
2018-04-23T15:30:24.234Z,4.77
2018-04-23T15:32:51.929Z,5.07
2018-04-23T15:35:19.478Z,5.40
2018-04-23T15:37:47.111Z,4.30
2018-04-23T15:40:14.804Z,5.10
2018-04-23T15:42:42.647Z,4.67
2018-04-23T15:45:10.193Z,5.07
2018-04-23T15:47:37.767Z,4.63
2018-04-23T15:50:05.308Z,4.40
2018-04-23T15:52:32.857Z,5.07
2018-04-23T15:55:00.398Z,5.20
2018-04-23T15:57:27.943Z,6.27
2018-04-23T15:59:55.518Z,4.90
2018-04-23T16:02:23.055Z,5.60
2018-04-23T16:04:50.589Z,6.10
2018-04-23T16:07:18.111Z,5.97
2018-04-23T16:09:45.752Z,7.27
2018-04-23T16:12:13.275Z,8.97
2018-04-23T16:14:40.914Z,7.80
2018-04-23T16:17:08.463Z,5.63
2018-04-23T16:19:35.988Z,4.50
2018-04-23T16:22:03.527Z,5.50
2018-04-23T16:24:31.135Z,5.70
2018-04-23T16:26:58.646Z,5.60
2018-04-23T16:29:26.209Z,5.40
2018-04-23T16:31:53.762Z,4.70
2018-04-23T16:34:21.299Z,4.90
2018-04-23T16:36:48.827Z,4.13
2018-04-23T16:39:16.359Z,6.90
2018-04-23T16:41:43.895Z,4.47
2018-04-23T16:44:11.462Z,5.97
2018-04-23T16:46:38.995Z,5.37
2018-04-23T16:49:06.562Z,4.50
2018-04-23T16:51:34.194Z,4.27
2018-04-23T16:54:02.344Z,4.40
2018-04-23T16:56:29.922Z,4.87
2018-04-23T16:58:57.493Z,4.47
2018-04-23T17:01:25.035Z,4.10
2018-04-23T17:03:52.602Z,4.50
2018-04-23T17:06:20.131Z,3.97
2018-04-23T17:08:47.659Z,4.40
2018-04-23T17:11:15.233Z,4.23
2018-04-23T17:13:42.768Z,5.07
2018-04-23T17:16:10.308Z,7.53
2018-04-23T17:18:37.835Z,6.83
2018-04-23T17:21:05.372Z,7.77
2018-04-23T17:23:32.979Z,5.17
2018-04-23T17:26:00.546Z,5.43
2018-04-23T17:28:28.089Z,5.80
2018-04-23T17:30:55.619Z,6.10
2018-04-23T17:33:23.168Z,5.37
2018-04-23T17:35:50.706Z,6.50
2018-04-23T17:38:18.300Z,7.73
2018-04-23T17:40:45.871Z,4.63
2018-04-23T17:43:13.407Z,4.70
2018-04-23T17:45:40.983Z,4.90
2018-04-23T17:48:08.519Z,5.60
2018-04-23T17:50:36.770Z,5.73
2018-04-23T17:53:04.308Z,6.00
2018-04-23T17:55:31.840Z,6.83
2018-04-23T17:57:59.398Z,7.10
2018-04-23T18:00:26.967Z,7.30
2018-04-23T18:02:54.503Z,7.60
2018-04-23T18:05:22.036Z,5.77
2018-04-23T18:07:49.578Z,6.93
2018-04-23T18:10:17.121Z,6.23
2018-04-23T18:12:44.702Z,4.60
2018-04-23T18:15:12.245Z,6.10
2018-04-23T18:17:39.842Z,6.37
2018-04-23T18:20:07.369Z,8.63
2018-04-23T18:22:34.917Z,9.10
2018-04-23T18:25:02.470Z,8.87
2018-04-23T18:27:30.003Z,9.23
2018-04-23T18:29:57.591Z,8.93
2018-04-23T18:32:25.136Z,8.33
2018-04-23T18:34:52.677Z,5.40
2018-04-23T18:37:20.219Z,7.13
2018-04-23T18:39:47.758Z,7.07
2018-04-23T18:42:15.344Z,7.23
2018-04-23T18:44:42.899Z,6.70
2018-04-23T18:47:10.477Z,6.67
2018-04-23T18:49:38.051Z,8.87
2018-04-23T18:52:05.605Z,7.87
2018-04-23T18:54:33.157Z,6.77
2018-04-23T18:57:00.736Z,7.83
2018-04-23T18:59:28.267Z,8.90
2018-04-23T19:01:55.815Z,7.63
2018-04-23T19:04:23.359Z,7.63
2018-04-23T19:06:50.911Z,9.00
2018-04-23T19:09:18.489Z,9.40
2018-04-23T19:11:46.082Z,10.90
2018-04-23T19:14:13.623Z,9.83
2018-04-23T19:16:41.178Z,11.30
2018-04-23T19:19:08.720Z,10.20
2018-04-23T19:21:36.270Z,10.13
2018-04-23T19:24:04.174Z,9.50
2018-04-23T19:26:31.715Z,10.07
2018-04-23T19:28:59.298Z,13.63
2018-04-23T19:31:26.913Z,10.57
2018-04-23T19:33:54.482Z,9.50
2018-04-23T19:36:22.039Z,9.83
2018-04-23T19:38:49.583Z,12.17
2018-04-23T19:41:17.301Z,16.53
2018-04-23T19:43:44.841Z,12.23
2018-04-23T19:46:12.467Z,10.87
2018-04-23T19:48:40.167Z,11.53
2018-04-23T19:51:07.704Z,10.87
2018-04-23T19:53:35.252Z,12.43
2018-04-23T19:56:02.852Z,11.27
2018-04-23T19:58:30.406Z,10.63
2018-04-23T20:00:57.968Z,10.10
2018-04-23T20:03:25.543Z,10.37
2018-04-23T20:05:53.120Z,13.50
2018-04-23T20:08:20.664Z,11.40
2018-04-23T20:10:48.242Z,11.33
2018-04-23T20:13:15.833Z,11.80
2018-04-23T20:15:43.401Z,12.50
2018-04-23T20:18:10.946Z,12.97
2018-04-23T20:20:38.488Z,12.77
2018-04-23T20:23:06.061Z,12.00
2018-04-23T20:25:33.645Z,13.10
2018-04-23T20:28:01.227Z,12.90
2018-04-23T20:30:28.825Z,12.73
2018-04-23T20:32:56.380Z,11.93
2018-04-23T20:35:23.941Z,12.83
2018-04-23T20:37:51.523Z,12.73
2018-04-23T20:40:19.098Z,13.03
2018-04-23T20:42:46.635Z,12.93
2018-04-23T20:45:14.211Z,12.30
2018-04-23T20:47:41.787Z,11.30
2018-04-23T20:50:09.382Z,10.97
2018-04-23T20:52:36.928Z,10.20
2018-04-23T20:55:04.472Z,10.17
2018-04-23T20:57:32.105Z,9.73
2018-04-23T20:59:59.684Z,10.40
2018-04-23T21:02:27.218Z,11.20
2018-04-23T21:04:54.755Z,10.13
2018-04-23T21:07:22.295Z,10.30
2018-04-23T21:09:49.900Z,9.97
2018-04-23T21:12:17.443Z,10.47
2018-04-23T21:14:44.988Z,10.53
2018-04-23T21:17:12.527Z,9.70
2018-04-23T21:19:40.093Z,9.47
2018-04-23T21:22:07.710Z,10.47
2018-04-23T21:24:35.260Z,10.57
2018-04-23T21:27:02.863Z,10.53
2018-04-23T21:29:30.416Z,10.97
2018-04-23T21:31:57.957Z,10.90
2018-04-23T21:34:25.537Z,10.77
2018-04-23T21:36:53.127Z,10.77
2018-04-23T21:39:20.689Z,10.63
2018-04-23T21:41:48.244Z,10.83
2018-04-23T21:44:15.817Z,10.73
2018-04-23T21:46:43.401Z,12.67
2018-04-23T21:49:10.947Z,13.90
2018-04-23T21:51:39.360Z,11.90
2018-04-23T21:54:06.903Z,12.40
2018-04-23T21:56:34.535Z,12.27
2018-04-23T21:59:02.084Z,11.70
2018-04-23T22:01:29.643Z,12.40
2018-04-23T22:03:57.229Z,11.93
2018-04-23T22:06:24.776Z,10.57
2018-04-23T22:08:52.389Z,10.27
2018-04-23T22:11:19.980Z,11.97
2018-04-23T22:13:47.528Z,12.20
2018-04-23T22:16:15.106Z,11.30
2018-04-23T22:18:42.647Z,12.03
2018-04-23T22:21:10.228Z,12.63
2018-04-23T22:23:37.767Z,11.90
2018-04-23T22:26:05.371Z,11.70
2018-04-23T22:28:32.979Z,12.27
2018-04-23T22:31:00.578Z,12.43
2018-04-23T22:33:28.167Z,11.40
2018-04-23T22:35:55.705Z,11.33
2018-04-23T22:38:23.320Z,12.60
2018-04-23T22:40:50.882Z,12.00
2018-04-23T22:43:18.673Z,11.60
2018-04-23T22:45:46.608Z,11.63
2018-04-23T22:48:14.172Z,12.10
2018-04-23T22:50:41.712Z,12.37
2018-04-23T22:53:09.249Z,11.77
2018-04-23T22:55:36.789Z,11.33
2018-04-23T22:58:04.332Z,10.83
2018-04-23T23:00:31.904Z,10.03
2018-04-23T23:02:59.446Z,10.43
2018-04-23T23:05:27.027Z,11.17
2018-04-23T23:07:54.560Z,11.73
2018-04-23T23:10:22.154Z,10.20
2018-04-23T23:12:49.728Z,12.20
2018-04-23T23:15:17.272Z,11.50
2018-04-23T23:17:44.864Z,12.07
2018-04-23T23:20:12.400Z,11.03
2018-04-23T23:22:39.958Z,10.43
2018-04-23T23:25:07.493Z,11.07
2018-04-23T23:27:35.076Z,10.47
2018-04-23T23:30:04.629Z,9.67
2018-04-23T23:32:32.387Z,11.23
2018-04-23T23:34:59.932Z,10.10
2018-04-23T23:37:27.476Z,8.37
2018-04-23T23:39:55.007Z,8.40
2018-04-23T23:42:22.581Z,8.10
2018-04-23T23:44:50.118Z,9.60
2018-04-23T23:47:17.661Z,8.00
2018-04-23T23:49:45.207Z,8.63
2018-04-23T23:52:12.749Z,8.70
2018-04-23T23:54:40.284Z,9.70
2018-04-23T23:57:07.819Z,10.37
2018-04-23T23:59:35.415Z,7.93
